• Join FlightAware (Why Join?)
  • Login
  • US Flag 
01:09AM EDT


 

Airport Tracker/Info


-or-


 

Live Flight TrackerFlight Track Log ✈ AIE861 ✈ 08-Jul-2013 ✈ CYCH - CYUL

Flight Track Log - Related Links

Times and Time Zones

All times are in EDT time to prevent confusion due to time zone crossing. See the AIE861 flight status page for this flight to view local times or setup timezone preferences in your user account.

Time Position Orientation Groundspeed Altitude Reporting Facility
EDT Latitude Longitude Course Direction KTS MPH feet Rate Location/Type
07:10AM 47.0000 -65.4333 360° North 150 173 900  Level Moncton Center
07:11AM 47.0333 -65.4333 360° North 120 138 2,200 1,260 Climbing Moncton Center
07:12AM 47.0000 -65.4833 226° Southwest 160 184 3,500 1,440 Climbing Moncton Center
07:13AM 46.9667 -65.5500 234° Southwest 170 196 5,100 1,500 Climbing Moncton Center
07:14AM 46.9500 -65.6000 244° Southwest 170 196 6,600 1,440 Climbing Moncton Center
07:15AM 46.9500 -65.6667 270° West 170 196 8,000 1,320 Climbing Moncton Center
07:16AM 46.9333 -65.7500 254° West 170 196 9,300 1,200 Climbing Moncton Center
07:17AM 46.9167 -65.8167 250° West 180 207 10,500 1,200 Climbing Moncton Center
07:18AM 46.9167 -65.8667 270° West 170 196 11,700 900 Climbing Moncton Center
07:19AM 46.9000 -65.9333 250° West 170 196 12,400 780 Climbing Moncton Center
07:20AM 46.8833 -66.0167 254° West 180 207 13,300 780 Climbing Moncton Center
07:21AM 46.8833 -66.0833 270° West 180 207 14,000 720 Climbing Moncton Center
07:22AM 46.8667 -66.1667 254° West 180 207 14,800 600 Climbing Moncton Center
07:23AM 46.8500 -66.2333 250° West 180 207 15,300 600 Climbing Moncton Center
07:24AM 46.8500 -66.3000 270° West 190 219 16,000 600 Climbing Moncton Center
07:25AM 46.8333 -66.3833 254° West 180 207 16,600 600 Climbing Moncton Center
07:26AM 46.8167 -66.4500 250° West 190 219 17,200 600 Climbing Moncton Center
07:27AM 46.8000 -66.5167 250° West 190 219 17,900 480 Climbing Moncton Center
07:28AM 46.7833 -66.6000 254° West 180 207 18,200 360 Climbing Moncton Center
07:29AM 46.7667 -66.6667 250° West 190 219 18,700 480 Climbing Moncton Center
07:30AM 46.7500 -66.7500 254° West 180 207 19,200 420 Climbing Moncton Center
07:31AM 46.7500 -66.8167 270° West 190 219 19,600 300 Climbing Moncton Center
07:32AM 46.7333 -66.8833 250° West 190 219 19,900 360 Climbing Moncton Center
07:33AM 46.7167 -66.9667 254° West 190 219 20,400 420 Climbing Moncton Center
07:34AM 46.7167 -67.0333 270° West 190 219 20,800 300 Climbing Moncton Center
07:35AM 46.7000 -67.1000 250° West 180 207 21,000 240 Climbing Moncton Center
07:36AM 46.6833 -67.1833 254° West 190 219 21,300 360 Climbing Moncton Center
07:37AM 46.6667 -67.2500 250° West 180 207 21,800 480 Climbing Moncton Center
07:38AM 46.6500 -67.3167 250° West 180 207 22,300 420 Climbing Moncton Center
07:39AM 46.6333 -67.4000 254° West 170 196 22,700 540 Climbing Moncton Center
07:40AM 46.6167 -67.4500 244° Southwest 170 196 23,400 480 Climbing Moncton Center
07:41AM 46.6167 -67.5167 270° West 160 184 23,700 300 Climbing Moncton Center
07:42AM 46.6000 -67.5833 250° West 160 184 24,000 120 Climbing Moncton Center
07:43AM 46.5833 -67.6667 254° West 170 196 24,000  Level Moncton Center
07:44AM 46.5833 -67.7333 270° West 180 207 24,000  Level Moncton Center
07:45AM 46.5667 -67.8000 250° West 190 219 24,000  Level Moncton Center
07:46AM 46.5333 -67.8833 240° Southwest 190 219 24,000  Level Moncton Center
07:47AM 46.5333 -67.9500 270° West 190 219 24,000  Level Moncton Center
07:48AM 46.5167 -68.0167 250° West 190 219 24,000  Level Moncton Center
07:49AM 46.5000 -68.1000 254° West 190 219 24,000  Level Moncton Center
07:50AM 46.4833 -68.1667 250° West 190 219 24,000  Level Moncton Center
07:51AM 46.4667 -68.2333 250° West 190 219 24,000  Level Moncton Center
07:52AM 46.4667 -68.3167 270° West 190 219 24,000  Level Moncton Center
07:53AM 46.4333 -68.4000 240° Southwest 190 219 24,000  Level Moncton Center
07:54AM 46.4167 -68.4833 254° West 190 219 24,000  Level Moncton Center
07:55AM 46.4000 -68.5500 250° West 210 242 24,000  Level Moncton Center
07:56AM 46.4000 -68.6167 270° West 190 219 24,000  Level Moncton Center
07:57AM 46.3833 -68.7000 254° West 200 230 24,000  Level Moncton Center
07:58AM 46.3667 -68.7667 250° West 200 230 24,000  Level Moncton Center
07:59AM 46.3333 -68.8667 244° Southwest 200 230 24,000  Level Moncton Center
08:00AM 46.3167 -68.9333 250° West 200 230 24,000  Level Moncton Center
08:01AM 46.3167 -69.0000 270° West 200 230 24,000  Level Moncton Center
08:02AM 46.3000 -69.1000 256° West 200 230 24,000  Level Moncton Center
08:03AM 46.2833 -69.1667 250° West 200 230 24,000  Level Moncton Center
08:04AM 46.2500 -69.2333 234° Southwest 200 230 24,000  Level Moncton Center
08:05AM 46.2500 -69.3167 270° West 200 230 24,000  Level Moncton Center
08:06AM 46.2333 -69.4000 254° West 220 253 24,000  Level Moncton Center
08:07AM 46.2167 -69.4833 254° West 200 230 24,000  Level Moncton Center
08:08AM 46.2000 -69.5500 250° West 190 219 24,000  Level Moncton Center
08:09AM 46.1667 -69.6500 244° Southwest 200 230 24,000  Level Moncton Center
08:10AM 46.1667 -69.7167 270° West 210 242 24,000  Level Moncton Center
08:11AM 46.1500 -69.7833 250° West 200 230 24,000  Level Moncton Center
08:12AM 46.1333 -69.8833 257° West 200 230 24,000  Level Moncton Center
08:13AM 46.1000 -69.9500 234° Southwest 210 242 24,000  Level Moncton Center
08:14AM 46.1000 -70.0167 270° West 210 242 24,000  Level Moncton Center
08:15AM 46.0833 -70.1167 257° West 210 242 24,000  Level Moncton Center
08:16AM 46.0667 -70.1833 250° West 210 242 24,000  Level Moncton Center
08:17AM 46.0333 -70.2500 234° Southwest 210 242 24,000  Level Moncton Center
08:18AM 46.0167 -70.3500 257° West 210 242 24,000  Level Moncton Center
08:19AM 46.0167 -70.4167 270° West 210 242 24,000  Level Moncton Center
08:20AM 46.0000 -70.5167 257° West 210 242 24,000  Level Moncton Center
08:21AM 45.9667 -70.5833 234° Southwest 210 242 24,000  Level Moncton Center
08:22AM 45.9500 -70.6500 250° West 200 230 24,000  Level Moncton Center
08:23AM 45.9333 -70.7500 257° West 200 230 24,000  Level Moncton Center
08:24AM 45.9333 -70.8167 270° West 200 230 24,000  Level Moncton Center
08:25AM 45.9000 -70.9000 240° Southwest 200 230 24,000  Level Moncton Center
08:26AM 45.9000 -70.9667 270° West 200 230 24,000  Level Moncton Center
08:27AM 45.9000 -71.0667 270° West 200 230 24,000  Level Moncton Center
08:28AM 45.8833 -71.1333 250° West 200 230 24,000  Level Moncton Center
08:29AM 45.8833 -71.2333 270° West 210 242 24,000  Level Moncton Center
08:30AM 45.8667 -71.3000 250° West 210 242 24,000  Level Moncton Center
08:31AM 45.8500 -71.4000 257° West 220 253 24,000  Level Moncton Center
08:32AM 45.8500 -71.4833 270° West 210 242 24,000  Level Moncton Center
08:33AM 45.8500 -71.5667 270° West 210 242 24,000  Level Moncton Center
08:34AM 45.8500 -71.6333 270° West 210 242 24,000 -240 Level Moncton Center
08:35AM 45.8333 -71.7333 257° West 210 242 23,600 -720 Descending Moncton Center
08:36AM 45.8333 -71.8167 270° West 230 265 22,600 -1,020 Descending Moncton Center
08:37AM 45.8000 -71.9167 244° Southwest 250 288 21,600 -1,020 Descending Moncton Center
08:38AM 45.8000 -72.0333 270° West 260 299 20,600 -900 Descending Moncton Center
08:39AM 45.8000 -72.1333 270° West 260 299 19,800 -780 Descending Moncton Center
08:40AM 45.7833 -72.2333 257° West 260 299 19,100 -540 Descending Moncton Center
08:41AM 45.7833 -72.3500 270° West 260 299 18,800 -420 Descending Moncton Center
08:42AM 45.7667 -72.4333 254° West 260 299 18,300 -420 Descending Moncton Center
08:43AM 45.7500 -72.5333 257° West 260 299 18,000 -300 Descending Moncton Center
08:44AM 45.7333 -72.6333 257° West 250 288 17,800 -300 Descending Moncton Center
08:45AM 45.7333 -72.7500 270° West 250 288 17,500 -360 Descending Moncton Center
08:46AM 45.7167 -72.8500 257° West 250 288 17,100 -420 Descending Moncton Center
08:47AM 45.7167 -72.9333 270° West 260 299 16,700 -420 Descending Moncton Center
08:48AM 45.7000 -73.0500 258° West 260 299 16,300 -360 Descending Moncton Center
08:49AM 45.6833 -73.1500 257° West 260 299 16,000 -900 Descending Moncton Center
08:50AM 45.6667 -73.2333 254° West 280 322 14,500 -1,560 Descending Moncton Center
08:51AM 45.6000 -73.3333 226° Southwest 290 334 12,900 -1,560 Descending Moncton Center
08:52AM 45.5667 -73.4333 245° Southwest 290 334 11,400 -1,500 Descending Moncton Center
08:53AM 45.5000 -73.5000 215° Southwest 280 322 9,900 -1,620 Descending Moncton Center
08:54AM 45.4500 -73.5833 229° Southwest 280 322 8,200 -1,140 Descending Moncton Center
08:55AM 45.4000 -73.6500 223° Southwest 280 322 7,700 -2,040 Descending Moncton Center
08:56AM 45.3667 -73.7333 240° Southwest 240 276 4,000 -2,340 Descending Montreal Center
08:57AM 45.3667 -73.8000 270° West 200 230 2,900 -1,080 Descending Montreal Center
08:58AM 45.4000 -73.8167 341° North 140 161 1,900 -1,140 Descending Montreal Center
08:59AM 45.4333 -73.7667 46° Northeast 120 138 700 -900 Descending Montreal Center
09:00AM 45.4500 -73.7500 35° Northeast 120 138 100 -600 Descending Montreal Center